createdAt,value
2022-09-24T00:01:34.817Z,30.57
2022-09-24T00:04:25.686Z,29.20
2022-09-24T00:07:13.239Z,31.70
2022-09-24T00:10:01.536Z,32.00
2022-09-24T00:12:48.726Z,30.37
2022-09-24T00:15:42.874Z,29.97
2022-09-24T00:18:30.893Z,30.90
2022-09-24T00:21:23.272Z,29.10
2022-09-24T00:24:34.654Z,29.03
2022-09-24T00:27:22.156Z,24.47
2022-09-24T00:30:09.736Z,26.33
2022-09-24T00:32:57.156Z,28.10
2022-09-24T00:35:44.226Z,26.77
2022-09-24T00:38:32.897Z,30.60
2022-09-24T00:41:21.174Z,28.53
2022-09-24T00:44:42.677Z,27.03
2022-09-24T00:47:37.290Z,29.00
2022-09-24T00:50:31.829Z,28.67
2022-09-24T00:53:22.712Z,32.53
2022-09-24T00:56:15.528Z,30.27
2022-09-24T00:59:04.693Z,31.27
2022-09-24T01:01:57.559Z,31.23
2022-09-24T01:04:45.229Z,30.77
2022-09-24T01:07:32.672Z,29.27
2022-09-24T01:10:48.302Z,30.87
2022-09-24T01:13:44.728Z,29.05
2022-09-24T01:16:47.387Z,31.37
2022-09-24T01:20:05.812Z,32.67
2022-09-24T01:23:17.846Z,29.00
2022-09-24T01:26:07.754Z,28.07
2022-09-24T01:29:32.225Z,31.20
2022-09-24T01:32:33.252Z,33.43
2022-09-24T01:35:32.038Z,30.10
2022-09-24T01:38:26.816Z,32.93
2022-09-24T01:41:16.075Z,31.05
2022-09-24T01:44:06.933Z,32.27
2022-09-24T01:46:54.864Z,30.63
2022-09-24T01:49:42.562Z,29.83
2022-09-24T01:52:43.948Z,31.23
2022-09-24T01:55:38.400Z,30.50
2022-09-24T01:58:40.355Z,32.22
2022-09-24T02:01:45.288Z,27.53
2022-09-24T02:04:39.857Z,28.97
2022-09-24T02:07:33.900Z,32.97
2022-09-24T02:10:21.076Z,28.97
2022-09-24T02:13:14.003Z,31.70
2022-09-24T02:25:14.903Z,30.33
2022-09-24T02:28:03.213Z,30.87
2022-09-24T02:30:59.224Z,30.33
2022-09-24T02:34:09.058Z,29.83
2022-09-24T02:46:02.843Z,27.63
2022-09-24T02:48:50.343Z,28.27
2022-09-24T02:51:40.135Z,26.63
2022-09-24T02:54:27.340Z,25.70
2022-09-24T02:57:14.547Z,24.63
2022-09-24T03:00:02.647Z,23.20
2022-09-24T03:02:49.839Z,20.23
2022-09-24T03:05:37.444Z,20.23
2022-09-24T03:08:25.274Z,20.23
2022-09-24T03:11:17.690Z,22.53
2022-09-24T03:14:06.167Z,21.97
2022-09-24T03:16:53.884Z,20.47
2022-09-24T03:19:41.962Z,19.23
2022-09-24T03:22:29.659Z,20.23
2022-09-24T03:25:17.627Z,19.33
2022-09-24T03:28:05.106Z,17.70
2022-09-24T03:31:01.400Z,21.10
2022-09-24T03:33:49.514Z,21.17
2022-09-24T03:36:36.624Z,21.13
2022-09-24T03:39:24.044Z,20.33
2022-09-24T03:42:11.530Z,21.80
2022-09-24T03:44:59.676Z,23.00
2022-09-24T03:47:46.857Z,22.97
2022-09-24T04:10:09.639Z,26.20
2022-09-24T04:12:57.636Z,25.83
2022-09-24T04:15:45.380Z,26.60
2022-09-24T04:18:37.006Z,27.53
2022-09-24T04:21:26.405Z,31.03
2022-09-24T04:24:14.218Z,30.43
2022-09-24T04:27:28.864Z,33.30
2022-09-24T04:30:48.049Z,35.57
2022-09-24T04:33:44.289Z,34.63
2022-09-24T04:36:42.567Z,32.47
2022-09-24T04:39:58.845Z,30.63
2022-09-24T04:42:56.182Z,19.43
2022-09-24T04:45:59.030Z,13.93
2022-09-24T04:48:46.525Z,13.87
2022-09-24T04:51:40.926Z,14.37
2022-09-24T04:54:29.849Z,10.83
2022-09-24T04:57:17.638Z,12.80
2022-09-24T05:00:19.265Z,15.83
2022-09-24T05:03:16.287Z,12.53
2022-09-24T05:06:03.877Z,11.57
2022-09-24T05:08:51.464Z,13.70
2022-09-24T05:11:46.167Z,12.30
2022-09-24T05:14:36.369Z,14.60
2022-09-24T05:17:26.531Z,12.43
2022-09-24T05:20:19.385Z,9.57
2022-09-24T05:23:07.966Z,10.13
2022-09-24T05:29:50.820Z,5.50
2022-09-24T05:32:38.379Z,8.10
2022-09-24T05:35:25.781Z,11.40
2022-09-24T05:38:12.867Z,10.87
2022-09-24T05:41:00.346Z,9.43
2022-09-24T05:43:49.014Z,7.73
2022-09-24T05:46:36.680Z,7.53
2022-09-24T05:49:24.752Z,15.87
2022-09-24T05:52:12.219Z,12.60
2022-09-24T05:54:59.290Z,8.40
2022-09-24T05:57:46.801Z,10.13
2022-09-24T06:00:36.218Z,10.23
2022-09-24T06:03:23.496Z,13.03
2022-09-24T06:06:11.176Z,11.73
2022-09-24T06:08:58.677Z,14.60
2022-09-24T06:11:46.570Z,8.60
2022-09-24T06:14:33.695Z,16.60
2022-09-24T06:17:21.480Z,10.30
2022-09-24T06:20:09.189Z,11.83
2022-09-24T06:22:59.901Z,9.10
2022-09-24T06:25:53.392Z,10.97
2022-09-24T06:28:41.758Z,17.20
2022-09-24T06:31:28.967Z,13.00
2022-09-24T06:34:16.488Z,10.17
2022-09-24T06:37:03.975Z,10.10
2022-09-24T06:39:51.048Z,16.63
2022-09-24T06:52:30.492Z,12.87
2022-09-24T06:55:18.664Z,12.70
2022-09-24T06:58:08.823Z,12.13
2022-09-24T07:00:59.344Z,9.17
2022-09-24T07:03:46.552Z,19.47
2022-09-24T07:06:55.838Z,11.83
2022-09-24T07:09:43.313Z,13.63
2022-09-24T07:12:32.667Z,13.23
2022-09-24T07:15:20.316Z,12.20
2022-09-24T07:18:08.682Z,11.03
2022-09-24T07:20:56.416Z,11.90
2022-09-24T07:23:43.522Z,9.77
2022-09-24T07:26:30.945Z,15.13
2022-09-24T07:29:18.554Z,11.00
2022-09-24T07:32:06.003Z,12.60
2022-09-24T07:34:54.144Z,9.50
2022-09-24T07:37:41.654Z,9.17
2022-09-24T07:40:30.392Z,9.50
2022-09-24T07:43:17.655Z,8.70
2022-09-24T07:46:05.650Z,12.20
2022-09-24T07:48:56.028Z,8.87
2022-09-24T07:51:44.235Z,7.77
2022-09-24T07:54:31.826Z,9.57
2022-09-24T07:57:18.909Z,10.27
2022-09-24T08:00:06.621Z,9.63
2022-09-24T08:02:56.327Z,9.83
2022-09-24T08:05:48.116Z,10.10
2022-09-24T08:08:35.929Z,10.37
2022-09-24T08:11:23.386Z,10.93
2022-09-24T08:14:11.024Z,14.37
2022-09-24T08:16:58.458Z,12.27
2022-09-24T08:19:46.968Z,12.33
2022-09-24T08:22:34.348Z,9.13
2022-09-24T08:25:21.766Z,7.90
2022-09-24T08:28:12.112Z,14.13
2022-09-24T08:31:00.994Z,12.00
2022-09-24T08:33:50.821Z,9.47
2022-09-24T08:36:42.794Z,10.37
2022-09-24T08:39:31.015Z,7.63
2022-09-24T08:42:30.340Z,10.37
2022-09-24T08:45:36.678Z,9.40
2022-09-24T08:48:31.622Z,9.63
2022-09-24T08:51:21.514Z,12.70
2022-09-24T08:54:15.935Z,10.63
2022-09-24T08:57:10.944Z,5.07
2022-09-24T09:03:06.756Z,9.10
2022-09-24T09:06:04.058Z,21.33
2022-09-24T09:09:20.333Z,14.43
2022-09-24T09:15:03.554Z,10.83
2022-09-24T09:18:03.012Z,16.30
2022-09-24T09:20:50.648Z,14.63
2022-09-24T09:23:46.987Z,12.73
2022-09-24T09:26:34.937Z,14.80
2022-09-24T09:29:28.004Z,8.43
2022-09-24T09:32:35.586Z,8.63
2022-09-24T09:35:23.502Z,13.67
2022-09-24T09:38:46.244Z,10.40
2022-09-24T09:41:40.045Z,12.40
2022-09-24T09:44:30.368Z,5.50
2022-09-24T09:47:20.905Z,6.40
2022-09-24T09:50:39.412Z,10.47
2022-09-24T09:53:31.177Z,9.80
2022-09-24T09:56:24.598Z,20.50
2022-09-24T09:59:11.993Z,10.40
2022-09-24T10:01:59.717Z,9.20
2022-09-24T10:04:50.001Z,8.60
2022-09-24T10:07:45.680Z,7.87
2022-09-24T10:10:33.169Z,13.20
2022-09-24T10:13:20.300Z,10.87
2022-09-24T10:16:10.406Z,11.17
2022-09-24T10:18:58.490Z,8.07
2022-09-24T10:21:45.849Z,11.90
2022-09-24T10:24:35.803Z,7.80
2022-09-24T10:27:30.057Z,12.30
2022-09-24T10:30:36.169Z,14.70
2022-09-24T10:33:27.108Z,10.60
2022-09-24T10:36:19.135Z,6.43
2022-09-24T10:39:14.156Z,7.40
2022-09-24T10:42:01.592Z,7.80
2022-09-24T10:44:52.811Z,8.63
2022-09-24T10:48:04.993Z,5.60
2022-09-24T10:51:24.131Z,5.80
2022-09-24T10:55:03.659Z,13.37
2022-09-24T10:58:03.114Z,11.68
2022-09-24T11:01:22.995Z,6.63
2022-09-24T11:04:20.245Z,8.70
2022-09-24T11:07:46.260Z,5.93
2022-09-24T11:10:43.418Z,8.63
2022-09-24T11:13:36.350Z,10.30
2022-09-24T11:17:07.028Z,8.50
2022-09-24T11:20:00.817Z,6.67
2022-09-24T11:23:08.294Z,7.53
2022-09-24T11:26:09.423Z,9.07
2022-09-24T11:29:14.073Z,7.27
2022-09-24T11:32:19.673Z,5.47
2022-09-24T11:35:47.038Z,8.57
2022-09-24T11:38:43.232Z,7.53
2022-09-24T11:41:49.703Z,8.07
2022-09-24T11:44:54.778Z,8.97
2022-09-24T11:48:18.944Z,10.70
2022-09-24T11:51:26.362Z,9.10
2022-09-24T11:54:32.226Z,10.97
2022-09-24T11:57:27.720Z,8.85
2022-09-24T12:03:11.679Z,8.50
2022-09-24T12:09:23.709Z,5.77
2022-09-24T12:12:35.025Z,8.30
2022-09-24T12:15:27.102Z,9.67
2022-09-24T12:18:23.736Z,5.60
2022-09-24T12:21:15.556Z,6.60
2022-09-24T12:31:12.407Z,8.43
2022-09-24T12:34:26.332Z,8.40
2022-09-24T12:37:18.452Z,5.13
2022-09-24T12:40:12.141Z,6.83
2022-09-24T12:43:02.850Z,9.40
2022-09-24T12:46:00.249Z,6.23
2022-09-24T12:49:19.465Z,5.70
2022-09-24T12:52:35.482Z,9.80
2022-09-24T12:55:26.075Z,7.47
2022-09-24T12:58:40.982Z,8.70
2022-09-24T13:01:56.951Z,6.47
2022-09-24T13:05:11.859Z,9.07
2022-09-24T13:08:03.858Z,14.13
2022-09-24T13:11:00.521Z,8.70
2022-09-24T13:14:05.885Z,6.53
2022-09-24T13:16:56.740Z,6.50
2022-09-24T13:19:45.806Z,7.13
2022-09-24T13:22:35.648Z,8.97
2022-09-24T13:25:25.477Z,4.90
2022-09-24T13:36:38.655Z,10.57
2022-09-24T13:40:43.117Z,6.77
2022-09-24T13:53:28.090Z,3.63
2022-09-24T13:56:17.757Z,7.40
2022-09-24T13:59:09.893Z,8.20
2022-09-24T14:01:57.605Z,11.10
2022-09-24T14:04:46.517Z,7.67
2022-09-24T14:07:34.295Z,6.50
2022-09-24T14:10:24.899Z,7.00
2022-09-24T14:13:22.537Z,6.10
2022-09-24T14:16:13.255Z,3.10
2022-09-24T14:19:04.213Z,9.27
2022-09-24T14:21:58.165Z,7.57
2022-09-24T14:24:58.722Z,7.17
2022-09-24T14:27:49.599Z,6.17
2022-09-24T14:30:47.408Z,7.03
2022-09-24T14:33:38.701Z,4.70
2022-09-24T14:36:29.100Z,8.37
2022-09-24T14:39:16.322Z,6.97
2022-09-24T14:42:10.745Z,11.93
2022-09-24T14:44:59.634Z,10.32
2022-09-24T14:47:49.605Z,6.50
2022-09-24T14:50:41.345Z,8.50
2022-09-24T14:53:37.264Z,5.10
2022-09-24T14:56:30.416Z,6.10
2022-09-24T14:59:35.903Z,4.80
2022-09-24T15:05:16.898Z,3.27
2022-09-24T15:08:27.310Z,8.97
2022-09-24T15:11:21.411Z,5.80
2022-09-24T15:14:15.041Z,5.53
2022-09-24T15:20:14.129Z,5.90
2022-09-24T15:23:01.941Z,5.63
2022-09-24T15:25:50.032Z,11.73
2022-09-24T15:28:37.489Z,5.73
2022-09-24T15:31:24.838Z,4.73
2022-09-24T15:34:15.441Z,4.37
2022-09-24T15:37:09.635Z,10.30
2022-09-24T15:40:04.667Z,5.77
2022-09-24T15:42:52.380Z,5.57
2022-09-24T15:45:39.949Z,8.23
2022-09-24T15:48:40.071Z,8.00
2022-09-24T15:51:27.640Z,5.47
2022-09-24T15:54:14.714Z,7.10
2022-09-24T15:57:02.716Z,6.93
2022-09-24T15:59:50.687Z,6.43
2022-09-24T16:02:38.220Z,6.40
2022-09-24T16:05:26.097Z,5.67
2022-09-24T16:08:14.155Z,4.77
2022-09-24T16:11:05.777Z,5.47
2022-09-24T16:13:56.253Z,6.80
2022-09-24T16:16:43.815Z,5.30
2022-09-24T16:19:31.308Z,7.80
2022-09-24T16:22:20.626Z,7.40
2022-09-24T16:25:08.735Z,8.83
2022-09-24T16:27:58.126Z,12.97
2022-09-24T16:30:45.639Z,4.60
2022-09-24T16:33:38.116Z,7.63
2022-09-24T16:36:25.780Z,6.13
2022-09-24T16:39:15.660Z,7.67
2022-09-24T16:42:03.234Z,4.30
2022-09-24T16:44:50.633Z,6.47
2022-09-24T16:47:38.277Z,11.13
2022-09-24T16:50:26.314Z,7.37
2022-09-24T16:53:15.306Z,8.63
2022-09-24T16:56:16.167Z,8.47
2022-09-24T16:59:03.635Z,5.83
2022-09-24T17:01:51.152Z,10.07
2022-09-24T17:04:39.705Z,10.73
2022-09-24T17:07:30.334Z,11.90
2022-09-24T17:10:26.244Z,9.47
2022-09-24T17:13:29.885Z,8.27
2022-09-24T17:16:18.779Z,7.03
2022-09-24T17:19:08.005Z,8.43
2022-09-24T17:21:55.545Z,5.53
2022-09-24T17:24:43.087Z,6.70
2022-09-24T17:27:31.863Z,6.43
2022-09-24T17:30:19.633Z,5.40
2022-09-24T17:33:25.324Z,8.00
2022-09-24T17:36:15.847Z,4.67
2022-09-24T17:39:05.521Z,7.50
2022-09-24T17:41:52.732Z,7.97
2022-09-24T17:44:40.372Z,9.23
2022-09-24T17:47:47.839Z,6.00
2022-09-24T17:50:35.774Z,5.50
2022-09-24T17:53:24.104Z,9.43
2022-09-24T18:02:37.445Z,4.53
2022-09-24T18:05:24.656Z,4.60
2022-09-24T18:08:12.497Z,7.30
2022-09-24T18:11:04.990Z,5.57
2022-09-24T18:13:55.007Z,10.07
2022-09-24T18:16:43.286Z,4.17
2022-09-24T18:19:30.359Z,8.40
2022-09-24T18:22:17.449Z,6.90
2022-09-24T18:25:13.933Z,11.20
2022-09-24T18:28:01.661Z,7.87
2022-09-24T18:31:05.622Z,6.20
2022-09-24T18:34:06.889Z,8.53
2022-09-24T18:36:54.015Z,6.03
2022-09-24T18:39:41.464Z,7.53
2022-09-24T18:42:28.909Z,6.50
2022-09-24T18:45:28.482Z,5.20
2022-09-24T18:48:16.328Z,11.50
2022-09-24T18:51:05.266Z,15.03
2022-09-24T18:53:58.098Z,9.87
2022-09-24T18:56:45.823Z,7.37
2022-09-24T18:59:38.488Z,7.03
2022-09-24T19:02:26.449Z,8.57
2022-09-24T19:05:13.696Z,9.60
2022-09-24T19:08:01.003Z,7.00
2022-09-24T19:10:49.258Z,9.60
2022-09-24T19:13:38.546Z,9.40
2022-09-24T19:16:26.244Z,6.40
2022-09-24T19:19:13.970Z,6.87
2022-09-24T19:22:01.387Z,5.93
2022-09-24T19:24:48.628Z,6.67
2022-09-24T19:27:36.237Z,5.60
2022-09-24T19:30:24.312Z,9.83
2022-09-24T19:33:16.062Z,7.77
2022-09-24T19:36:04.610Z,9.07
2022-09-24T19:38:53.077Z,6.87
2022-09-24T19:41:40.567Z,11.53
2022-09-24T19:44:28.156Z,7.20
2022-09-24T19:47:15.262Z,11.43
2022-09-24T19:50:17.199Z,4.47
2022-09-24T19:53:05.360Z,9.47
2022-09-24T19:55:53.228Z,7.17
2022-09-24T19:58:41.260Z,8.40
2022-09-24T20:01:31.304Z,9.60
2022-09-24T20:04:20.472Z,7.37
2022-09-24T20:07:18.449Z,7.93
2022-09-24T20:10:07.839Z,7.43
2022-09-24T20:12:55.116Z,10.33
2022-09-24T20:15:42.469Z,6.60
2022-09-24T20:18:31.192Z,13.90
2022-09-24T20:21:19.478Z,9.43
2022-09-24T20:24:10.601Z,9.73
2022-09-24T20:27:16.989Z,9.13
2022-09-24T20:32:51.336Z,8.83
2022-09-24T20:35:40.016Z,9.67
2022-09-24T20:38:28.352Z,10.27
2022-09-24T20:41:19.266Z,6.97
2022-09-24T20:44:06.832Z,11.07
2022-09-24T20:46:54.790Z,9.70
2022-09-24T20:49:42.350Z,8.97
2022-09-24T20:52:29.467Z,10.90
2022-09-24T20:55:16.993Z,7.27
2022-09-24T20:58:04.208Z,7.57
2022-09-24T21:00:54.571Z,7.83
2022-09-24T21:03:45.929Z,9.13
2022-09-24T21:06:35.427Z,10.70
2022-09-24T21:09:22.968Z,10.00
2022-09-24T21:12:10.131Z,11.07
2022-09-24T21:14:59.947Z,9.47
2022-09-24T21:18:05.094Z,5.37
2022-09-24T21:20:54.522Z,8.20
2022-09-24T21:23:46.173Z,7.63
2022-09-24T21:26:36.220Z,7.50
2022-09-24T21:29:23.544Z,11.07
2022-09-24T21:32:11.148Z,5.50
2022-09-24T21:34:58.801Z,8.47
2022-09-24T21:41:03.136Z,4.10
2022-09-24T21:43:51.088Z,14.03
2022-09-24T21:46:38.580Z,5.87
2022-09-24T21:49:26.232Z,7.93
2022-09-24T21:52:13.587Z,6.73
2022-09-24T21:55:01.051Z,6.07
2022-09-24T21:57:48.472Z,4.30
2022-09-24T22:00:35.603Z,8.00
2022-09-24T22:03:23.106Z,8.00
2022-09-24T22:06:10.241Z,9.30
2022-09-24T22:09:05.699Z,10.77
2022-09-24T22:11:55.757Z,8.60
2022-09-24T22:14:44.810Z,7.93
2022-09-24T22:17:33.193Z,6.57
2022-09-24T22:20:20.414Z,8.13
2022-09-24T22:23:07.981Z,9.83
2022-09-24T22:25:57.116Z,9.27
2022-09-24T22:28:45.252Z,5.97
2022-09-24T22:31:33.512Z,11.13
2022-09-24T22:34:40.033Z,6.40
2022-09-24T22:40:15.258Z,5.50
2022-09-24T22:43:02.880Z,9.57
2022-09-24T22:45:50.076Z,9.07
2022-09-24T22:48:38.308Z,9.47
2022-09-24T22:51:28.229Z,7.90
2022-09-24T22:54:16.664Z,9.23
2022-09-24T22:57:04.194Z,8.00
2022-09-24T22:59:51.408Z,9.20
2022-09-24T23:02:39.019Z,5.93
2022-09-24T23:05:26.957Z,10.80
2022-09-24T23:08:14.118Z,10.43
2022-09-24T23:11:12.804Z,10.03
2022-09-24T23:14:06.862Z,9.17
2022-09-24T23:16:58.785Z,6.60
2022-09-24T23:19:49.948Z,8.37
2022-09-24T23:22:37.676Z,8.07
2022-09-24T23:25:25.082Z,7.27
2022-09-24T23:28:12.818Z,6.87
2022-09-24T23:31:00.633Z,5.20
2022-09-24T23:33:49.530Z,9.33
2022-09-24T23:36:37.733Z,5.70
2022-09-24T23:39:24.964Z,6.97
2022-09-24T23:42:12.446Z,6.87
2022-09-24T23:44:59.918Z,6.03
2022-09-24T23:47:47.393Z,6.47
2022-09-24T23:50:34.957Z,7.83
2022-09-24T23:53:22.261Z,9.33
2022-09-24T23:56:09.578Z,7.90
2022-09-24T23:58:57.696Z,8.40
